Terminal Aerodrome Forecast
Issued by NWS Wilmington, OH

Current Version | Previous Version | Graphics & Text | Print | Product List | Glossary On
Versions: 1 2 3 4 5 6 7 8 9 10 11 12 13 14 15 16 17 18 19 20 21
000
FTUS41 KILN 232057 AAB
TAFCMH
TAF AMD
KCMH 232057Z 2321/2418 23007KT P6SM -RA SCT008 SCT060 OVC100
     FM240000 20006KT 4SM SHRA OVC029
     FM240100 28005KT P6SM VCSH OVC030
     FM240600 27006KT P6SM SCT250
     FM241400 29012KT P6SM SCT040=

USA.gov is the U.S. government's official web portal to all federal, state and local government web resources and services.